createdAt,value
2023-05-18T00:01:32.821Z,8.40
2023-05-18T00:04:17.582Z,10.90
2023-05-18T00:07:05.031Z,11.97
2023-05-18T00:09:50.075Z,10.17
2023-05-18T00:12:34.211Z,15.70
2023-05-18T00:15:18.289Z,11.37
2023-05-18T00:18:02.589Z,8.87
2023-05-18T00:20:46.846Z,14.10
2023-05-18T00:23:33.282Z,8.40
2023-05-18T00:26:17.292Z,9.33
2023-05-18T00:29:02.966Z,10.40
2023-05-18T00:31:47.415Z,5.13
2023-05-18T00:34:31.816Z,11.00
2023-05-18T00:37:15.897Z,12.20
2023-05-18T00:40:01.367Z,10.60
2023-05-18T00:42:48.217Z,10.13
2023-05-18T00:45:32.449Z,7.03
2023-05-18T00:48:16.694Z,9.30
2023-05-18T00:51:02.199Z,13.80
2023-05-18T00:53:46.640Z,10.00
2023-05-18T00:56:34.312Z,7.40
2023-05-18T00:59:18.714Z,8.90
2023-05-18T01:02:03.204Z,10.23
2023-05-18T01:04:47.468Z,8.20
2023-05-18T01:07:33.725Z,7.53
2023-05-18T01:10:19.928Z,13.87
2023-05-18T01:13:10.984Z,9.40
2023-05-18T01:16:03.090Z,7.60
2023-05-18T01:18:55.082Z,9.20
2023-05-18T01:21:57.668Z,8.90
2023-05-18T01:24:45.792Z,7.53
2023-05-18T01:27:37.770Z,5.93
2023-05-18T01:30:22.460Z,6.17
2023-05-18T01:33:08.700Z,9.17
2023-05-18T01:35:52.835Z,7.43
2023-05-18T01:38:41.665Z,6.23
2023-05-18T01:41:29.670Z,6.60
2023-05-18T01:44:22.153Z,6.23
2023-05-18T01:47:12.014Z,10.97
2023-05-18T01:50:01.221Z,7.20
2023-05-18T01:52:55.539Z,6.83
2023-05-18T01:55:41.900Z,4.87
2023-05-18T01:58:28.942Z,6.27
2023-05-18T02:01:16.221Z,6.77
2023-05-18T02:04:00.374Z,9.27
2023-05-18T02:06:44.769Z,9.23
2023-05-18T02:09:29.571Z,3.50
2023-05-18T02:12:13.690Z,5.73
2023-05-18T02:14:58.603Z,4.20
2023-05-18T02:17:44.123Z,6.57
2023-05-18T02:20:50.856Z,5.23
2023-05-18T02:23:35.072Z,4.53
2023-05-18T02:26:19.674Z,5.57
2023-05-18T02:29:11.987Z,3.40
2023-05-18T02:31:56.345Z,6.20
2023-05-18T02:34:46.421Z,5.50
2023-05-18T02:37:34.537Z,4.93
2023-05-18T02:40:18.634Z,8.07
2023-05-18T02:43:02.593Z,5.37
2023-05-18T02:45:47.512Z,4.67
2023-05-18T02:48:32.268Z,4.87
2023-05-18T02:51:17.586Z,4.57
2023-05-18T02:54:02.074Z,8.43
2023-05-18T02:56:49.073Z,4.07
2023-05-18T02:59:47.433Z,3.03
2023-05-18T03:02:31.591Z,12.73
2023-05-18T03:05:16.770Z,4.13
2023-05-18T03:08:02.606Z,4.70
2023-05-18T03:10:48.241Z,7.63
2023-05-18T03:13:32.152Z,5.47
2023-05-18T03:16:17.219Z,7.43
2023-05-18T03:19:02.899Z,5.83
2023-05-18T03:21:53.683Z,5.60
2023-05-18T03:24:41.473Z,4.80
2023-05-18T03:27:29.763Z,4.93
2023-05-18T03:30:14.163Z,6.93
2023-05-18T03:32:58.054Z,4.37
2023-05-18T03:35:42.371Z,4.37
2023-05-18T03:38:26.657Z,4.80
2023-05-18T03:41:18.480Z,3.87
2023-05-18T03:44:02.493Z,4.37
2023-05-18T03:46:47.518Z,8.70
2023-05-18T03:49:31.730Z,3.57
2023-05-18T03:52:22.256Z,7.00
2023-05-18T03:55:07.230Z,6.33
2023-05-18T03:57:53.899Z,8.03
2023-05-18T04:00:39.217Z,10.13
2023-05-18T04:03:25.251Z,5.17
2023-05-18T04:06:10.456Z,9.97
2023-05-18T04:08:55.053Z,5.57
2023-05-18T04:11:38.984Z,8.60
2023-05-18T04:14:24.820Z,5.80
2023-05-18T04:17:10.275Z,6.17
2023-05-18T04:19:54.280Z,6.13
2023-05-18T04:22:43.381Z,5.63
2023-05-18T04:25:28.563Z,11.23
2023-05-18T04:28:12.773Z,2.60
2023-05-18T04:30:59.149Z,3.83
2023-05-18T04:33:47.435Z,3.87
2023-05-18T04:36:31.793Z,5.90
2023-05-18T04:39:15.613Z,5.40
2023-05-18T04:42:00.328Z,6.67
2023-05-18T04:44:45.774Z,4.10
2023-05-18T04:47:32.998Z,7.73
2023-05-18T04:50:18.523Z,5.37
2023-05-18T04:53:03.586Z,5.57
2023-05-18T04:55:49.058Z,3.67
2023-05-18T04:58:35.710Z,7.20
2023-05-18T05:01:20.013Z,4.43
2023-05-18T05:04:07.137Z,7.37
2023-05-18T05:06:51.029Z,10.90
2023-05-18T05:09:34.960Z,6.43
2023-05-18T05:12:19.231Z,5.93
2023-05-18T05:15:03.236Z,6.33
2023-05-18T05:17:50.666Z,4.00
2023-05-18T05:20:36.496Z,3.23
2023-05-18T05:23:20.449Z,6.03
2023-05-18T05:26:05.115Z,5.60
2023-05-18T05:28:49.464Z,4.73
2023-05-18T05:31:34.744Z,5.73
2023-05-18T05:34:18.909Z,9.95
2023-05-18T05:37:04.648Z,8.20
2023-05-18T05:39:48.752Z,10.80
2023-05-18T05:42:35.058Z,13.63
2023-05-18T05:45:20.177Z,8.00
2023-05-18T05:48:13.517Z,8.43
2023-05-18T05:50:58.273Z,6.53
2023-05-18T05:53:46.273Z,8.97
2023-05-18T05:56:32.397Z,4.07
2023-05-18T05:59:16.794Z,5.73
2023-05-18T06:02:00.884Z,7.73
2023-05-18T06:04:45.001Z,7.10
2023-05-18T06:07:30.246Z,5.13
2023-05-18T06:10:15.683Z,6.60
2023-05-18T06:12:59.934Z,9.60
2023-05-18T06:15:52.039Z,7.88
2023-05-18T06:18:36.751Z,7.35
2023-05-18T06:21:22.787Z,8.03
2023-05-18T06:24:08.056Z,15.18
2023-05-18T06:27:19.654Z,5.83
2023-05-18T06:30:12.209Z,8.50
2023-05-18T06:33:15.038Z,10.45
2023-05-18T06:35:59.068Z,5.32
2023-05-18T06:38:43.003Z,4.82
2023-05-18T06:41:26.932Z,4.97
2023-05-18T06:44:12.662Z,10.23
2023-05-18T06:47:16.204Z,6.05
2023-05-18T06:50:00.157Z,8.07
2023-05-18T06:52:46.227Z,9.95
2023-05-18T06:55:30.292Z,5.47
2023-05-18T06:58:14.637Z,7.80
2023-05-18T07:01:01.344Z,4.47
2023-05-18T07:03:45.877Z,11.52
2023-05-18T07:06:30.088Z,6.40
2023-05-18T07:09:13.999Z,8.27
2023-05-18T07:11:57.944Z,9.32
2023-05-18T07:14:41.868Z,7.60
2023-05-18T07:17:27.220Z,6.05
2023-05-18T07:20:11.970Z,7.53
2023-05-18T07:22:56.304Z,4.97
2023-05-18T07:25:40.315Z,5.53
2023-05-18T07:28:24.621Z,5.78
2023-05-18T07:31:08.545Z,8.82
2023-05-18T07:33:53.972Z,6.28
2023-05-18T07:36:37.906Z,7.25
2023-05-18T07:39:28.557Z,6.10
2023-05-18T07:42:12.677Z,6.43
2023-05-18T07:44:56.528Z,9.00
2023-05-18T07:47:40.946Z,7.77
2023-05-18T07:50:26.618Z,14.05
2023-05-18T07:53:10.486Z,10.32
2023-05-18T07:55:54.495Z,6.10
2023-05-18T07:58:38.517Z,11.43
2023-05-18T08:01:27.398Z,7.17
2023-05-18T08:04:11.456Z,5.93
2023-05-18T08:07:00.568Z,7.23
2023-05-18T08:09:44.932Z,7.95
2023-05-18T08:12:30.051Z,10.65
2023-05-18T08:15:14.112Z,9.98
2023-05-18T08:17:58.058Z,7.57
2023-05-18T08:20:42.008Z,8.57
2023-05-18T08:23:27.351Z,8.38
2023-05-18T08:26:13.950Z,11.13
2023-05-18T08:28:58.135Z,5.53
2023-05-18T08:31:42.601Z,7.78
2023-05-18T08:34:26.632Z,10.68
2023-05-18T08:37:10.516Z,15.00
2023-05-18T08:39:55.905Z,10.65
2023-05-18T08:42:50.514Z,8.40
2023-05-18T08:45:41.184Z,13.65
2023-05-18T08:48:28.438Z,13.38
2023-05-18T08:51:14.372Z,15.38
2023-05-18T08:53:59.942Z,10.60
2023-05-18T08:56:46.359Z,7.97
2023-05-18T08:59:33.031Z,9.13
2023-05-18T09:02:17.620Z,5.38
2023-05-18T09:05:02.733Z,8.55
2023-05-18T09:07:50.445Z,7.28
2023-05-18T09:10:35.149Z,5.72
2023-05-18T09:13:21.328Z,9.02
2023-05-18T09:16:05.569Z,8.75
2023-05-18T09:18:49.595Z,7.63
2023-05-18T09:21:33.952Z,8.20
2023-05-18T09:24:19.478Z,7.25
2023-05-18T09:27:03.747Z,6.60
2023-05-18T09:29:56.628Z,8.45
2023-05-18T09:32:40.869Z,6.82
2023-05-18T09:35:26.660Z,9.82
2023-05-18T09:38:11.090Z,6.68
2023-05-18T09:40:55.172Z,6.90
2023-05-18T09:43:39.364Z,7.72
2023-05-18T09:46:24.638Z,6.57
2023-05-18T09:49:09.961Z,7.88
2023-05-18T09:51:54.262Z,8.18
2023-05-18T09:54:39.211Z,7.90
2023-05-18T09:57:23.178Z,5.53
2023-05-18T10:00:11.128Z,5.65
2023-05-18T10:02:56.736Z,7.43
2023-05-18T10:05:43.837Z,6.25
2023-05-18T10:08:27.860Z,9.80
2023-05-18T10:11:12.658Z,5.68
2023-05-18T10:13:57.113Z,9.98
2023-05-18T10:16:42.793Z,5.78
2023-05-18T10:19:29.478Z,5.78
2023-05-18T10:22:17.568Z,7.32
2023-05-18T10:25:04.697Z,7.93
2023-05-18T10:27:50.535Z,10.30
2023-05-18T10:30:35.785Z,7.65
2023-05-18T10:33:28.609Z,13.95
2023-05-18T10:36:16.557Z,8.50
2023-05-18T10:39:02.036Z,9.98
2023-05-18T10:41:48.317Z,7.07
2023-05-18T10:44:33.127Z,11.68
2023-05-18T10:47:17.300Z,9.32
2023-05-18T10:50:02.936Z,13.88
2023-05-18T10:52:50.028Z,9.73
2023-05-18T10:55:34.518Z,8.80
2023-05-18T10:58:20.027Z,9.25
2023-05-18T11:01:08.497Z,12.75
2023-05-18T11:03:52.366Z,9.85
2023-05-18T11:06:36.560Z,12.10
2023-05-18T11:09:26.312Z,11.07
2023-05-18T11:12:14.236Z,11.95
2023-05-18T11:14:58.558Z,19.08
2023-05-18T11:17:42.301Z,26.48
2023-05-18T11:20:27.339Z,16.63
2023-05-18T11:23:11.069Z,21.20
2023-05-18T11:25:56.146Z,17.70
2023-05-18T11:28:45.124Z,12.90
2023-05-18T11:31:47.178Z,13.52
2023-05-18T11:34:52.674Z,9.80
2023-05-18T11:37:50.064Z,10.30
2023-05-18T11:40:47.929Z,12.20
2023-05-18T11:43:34.011Z,14.95
2023-05-18T11:46:22.446Z,15.43
2023-05-18T11:49:08.446Z,19.02
2023-05-18T11:52:04.781Z,22.70
2023-05-18T11:54:52.407Z,23.70
2023-05-18T11:57:40.949Z,27.55
2023-05-18T12:00:26.690Z,28.88
2023-05-18T12:03:10.994Z,19.02
2023-05-18T12:05:55.421Z,16.25
2023-05-18T12:08:44.048Z,14.93
2023-05-18T12:11:27.795Z,13.50
2023-05-18T12:14:12.677Z,13.10
2023-05-18T12:16:59.947Z,13.63
2023-05-18T12:19:45.266Z,14.38
2023-05-18T12:22:28.991Z,12.55
2023-05-18T12:25:13.234Z,14.02
2023-05-18T12:27:57.905Z,17.02
2023-05-18T12:30:44.090Z,15.57
2023-05-18T12:33:29.293Z,17.30
2023-05-18T12:36:14.120Z,11.38
2023-05-18T12:38:57.817Z,11.32
2023-05-18T12:41:41.479Z,14.57
2023-05-18T12:44:25.157Z,11.95
2023-05-18T12:47:09.053Z,15.00
2023-05-18T12:49:54.196Z,13.43
2023-05-18T12:52:38.642Z,13.55
2023-05-18T12:55:23.211Z,13.18
2023-05-18T12:58:09.836Z,16.52
2023-05-18T13:00:53.592Z,14.77
2023-05-18T13:03:40.567Z,16.08
2023-05-18T13:06:26.557Z,13.23
2023-05-18T13:09:12.946Z,16.38
2023-05-18T13:14:48.893Z,15.23
2023-05-18T13:17:32.784Z,14.13
2023-05-18T13:20:16.860Z,14.43
2023-05-18T13:23:04.492Z,12.65
2023-05-18T13:25:48.782Z,10.38
2023-05-18T13:28:32.567Z,10.45
2023-05-18T13:31:16.428Z,14.07
2023-05-18T13:34:00.151Z,17.73
2023-05-18T13:36:43.857Z,15.95
2023-05-18T13:39:29.147Z,14.50
2023-05-18T13:42:13.456Z,16.85
2023-05-18T13:44:57.180Z,13.38
2023-05-18T13:47:41.571Z,16.05
2023-05-18T13:50:26.320Z,19.60
2023-05-18T13:53:10.059Z,16.85
2023-05-18T13:55:55.358Z,20.40
2023-05-18T13:58:39.038Z,18.42
2023-05-18T14:01:23.437Z,24.42
2023-05-18T14:04:07.217Z,17.08
2023-05-18T14:06:54.349Z,19.13
2023-05-18T14:09:38.356Z,13.95
2023-05-18T14:12:23.499Z,14.02
2023-05-18T14:15:08.200Z,17.88
2023-05-18T14:17:51.985Z,14.00
2023-05-18T14:20:37.947Z,15.55
2023-05-18T14:23:21.692Z,15.43
2023-05-18T14:26:05.549Z,14.73
2023-05-18T14:28:50.641Z,12.98
2023-05-18T14:31:35.420Z,14.18
2023-05-18T14:34:19.331Z,8.57
2023-05-18T14:37:03.255Z,12.80
2023-05-18T14:39:47.156Z,9.75
2023-05-18T14:42:31.046Z,8.35
2023-05-18T14:45:17.548Z,7.13
2023-05-18T14:48:01.329Z,11.27
2023-05-18T14:50:45.157Z,8.73
2023-05-18T14:53:28.885Z,5.70
2023-05-18T14:56:13.243Z,7.35
2023-05-18T14:58:56.977Z,9.63
2023-05-18T15:01:42.294Z,7.13
2023-05-18T15:04:26.336Z,9.68
2023-05-18T15:07:10.217Z,9.82
2023-05-18T15:09:55.356Z,9.45
2023-05-18T15:12:39.115Z,7.80
2023-05-18T15:15:24.171Z,12.10
2023-05-18T15:18:11.988Z,11.20
2023-05-18T15:20:56.113Z,13.20
2023-05-18T15:23:39.925Z,13.10
2023-05-18T15:26:23.714Z,10.20
2023-05-18T15:29:07.440Z,7.30
2023-05-18T15:31:52.782Z,9.73
2023-05-18T15:34:37.927Z,18.13
2023-05-18T15:37:21.763Z,12.50
2023-05-18T15:40:06.112Z,15.05
2023-05-18T15:42:49.985Z,9.18
2023-05-18T15:45:33.850Z,8.55
2023-05-18T15:48:17.537Z,9.63
2023-05-18T15:51:02.725Z,10.40
2023-05-18T15:53:46.565Z,8.63
2023-05-18T15:56:30.561Z,12.82
2023-05-18T15:59:14.230Z,12.23
2023-05-18T16:01:57.966Z,7.53
2023-05-18T16:04:41.684Z,8.25
2023-05-18T16:07:26.783Z,12.10
2023-05-18T16:10:10.692Z,10.48
2023-05-18T16:12:54.359Z,11.77
2023-05-18T16:15:38.337Z,8.02
2023-05-18T16:18:22.160Z,8.00
2023-05-18T16:21:06.441Z,9.57
2023-05-18T16:23:51.713Z,9.63
2023-05-18T16:26:37.270Z,9.52
2023-05-18T16:29:22.273Z,11.88
2023-05-18T16:32:06.908Z,11.73
2023-05-18T16:34:50.954Z,9.57
2023-05-18T16:37:34.816Z,6.97
2023-05-18T16:40:20.258Z,11.68
2023-05-18T16:43:04.306Z,8.27
2023-05-18T16:45:48.293Z,7.65
2023-05-18T16:48:31.977Z,8.10
2023-05-18T16:51:15.798Z,7.60
2023-05-18T16:53:59.502Z,11.07
2023-05-18T16:56:44.643Z,9.13
2023-05-18T16:59:28.399Z,7.88
2023-05-18T17:02:14.103Z,5.88
2023-05-18T17:04:59.286Z,6.78
2023-05-18T17:07:43.022Z,13.90
2023-05-18T17:10:26.829Z,8.05
2023-05-18T17:13:11.915Z,12.43
2023-05-18T17:15:55.727Z,13.25
2023-05-18T17:18:39.497Z,10.65
2023-05-18T17:21:23.949Z,15.15
2023-05-18T17:24:08.262Z,21.45
2023-05-18T17:26:52.105Z,16.20
2023-05-18T17:29:37.312Z,13.00
2023-05-18T17:32:21.105Z,7.03
2023-05-18T17:35:05.648Z,12.95
2023-05-18T17:37:49.458Z,10.50
2023-05-18T17:40:33.786Z,11.13
2023-05-18T17:43:17.695Z,11.13
2023-05-18T17:46:03.193Z,12.20
2023-05-18T17:48:47.699Z,9.40
2023-05-18T17:51:31.671Z,11.45
2023-05-18T17:54:15.861Z,14.85
2023-05-18T17:56:59.601Z,14.93
2023-05-18T17:59:43.368Z,20.92
2023-05-18T18:02:28.977Z,12.38
2023-05-18T18:05:13.107Z,9.60
2023-05-18T18:07:57.587Z,10.85
2023-05-18T18:10:41.551Z,11.38
2023-05-18T18:13:26.020Z,11.25
2023-05-18T18:16:10.029Z,9.93
2023-05-18T18:18:57.085Z,8.60
2023-05-18T18:21:41.049Z,9.23
2023-05-18T18:24:25.160Z,10.20
2023-05-18T18:27:09.271Z,10.52
2023-05-18T18:29:53.382Z,11.63
2023-05-18T18:32:37.362Z,9.93
2023-05-18T18:35:22.833Z,7.57
2023-05-18T18:38:06.803Z,9.07
2023-05-18T18:40:51.355Z,9.90
2023-05-18T18:43:38.852Z,7.53
2023-05-18T18:46:22.989Z,9.25
2023-05-18T18:49:06.987Z,10.38
2023-05-18T18:51:53.291Z,8.70
2023-05-18T18:54:37.661Z,7.95
2023-05-18T18:57:21.983Z,11.57
2023-05-18T19:00:11.136Z,7.50
2023-05-18T19:02:55.338Z,8.90
2023-05-18T19:05:40.364Z,10.73
2023-05-18T19:08:25.729Z,8.80
2023-05-18T19:11:10.007Z,10.13
2023-05-18T19:13:53.870Z,8.13
2023-05-18T19:16:47.001Z,11.43
2023-05-18T19:19:32.746Z,10.90
2023-05-18T19:22:16.940Z,8.35
2023-05-18T19:25:02.400Z,9.52
2023-05-18T19:27:48.907Z,11.63
2023-05-18T19:30:32.814Z,10.57
2023-05-18T19:33:16.884Z,12.18
2023-05-18T19:36:01.402Z,8.98
2023-05-18T19:38:46.795Z,9.00
2023-05-18T19:41:32.487Z,10.80
2023-05-18T19:44:16.778Z,11.50
2023-05-18T19:47:01.074Z,12.35
2023-05-18T19:49:45.290Z,10.55
2023-05-18T19:52:29.368Z,11.27
2023-05-18T19:55:13.914Z,9.70
2023-05-18T19:57:59.400Z,11.00
2023-05-18T20:00:43.478Z,11.38
2023-05-18T20:03:27.778Z,11.93
2023-05-18T20:06:12.277Z,11.97
2023-05-18T20:08:56.200Z,12.87
2023-05-18T20:11:40.189Z,10.95
2023-05-18T20:14:27.013Z,10.02
2023-05-18T20:17:11.050Z,9.80
2023-05-18T20:19:54.857Z,10.80
2023-05-18T20:22:39.802Z,11.77
2023-05-18T20:25:25.008Z,13.18
2023-05-18T20:28:09.293Z,10.07
2023-05-18T20:30:55.175Z,10.32
2023-05-18T20:33:39.550Z,10.80
2023-05-18T20:36:23.461Z,10.43
2023-05-18T20:39:07.420Z,14.30
2023-05-18T20:41:51.348Z,11.55
2023-05-18T20:44:35.433Z,9.73
2023-05-18T20:47:21.234Z,9.80
2023-05-18T20:50:06.006Z,11.27
2023-05-18T20:52:50.703Z,12.52
2023-05-18T20:55:34.572Z,11.70
2023-05-18T20:58:19.248Z,12.25
2023-05-18T21:01:07.044Z,12.45
2023-05-18T21:03:53.048Z,9.43
2023-05-18T21:06:40.623Z,13.07
2023-05-18T21:09:24.749Z,10.65
2023-05-18T21:12:09.037Z,10.07
2023-05-18T21:14:52.972Z,11.32
2023-05-18T21:17:36.918Z,11.40
2023-05-18T21:20:22.215Z,11.25
2023-05-18T21:23:06.229Z,13.20
2023-05-18T21:25:50.162Z,14.55
2023-05-18T21:28:34.107Z,15.70
2023-05-18T21:31:18.127Z,12.85
2023-05-18T21:34:02.007Z,14.20
2023-05-18T21:36:47.391Z,11.93
2023-05-18T21:39:31.555Z,12.67
2023-05-18T21:42:15.542Z,19.13
2023-05-18T21:44:59.352Z,13.90
2023-05-18T21:47:43.397Z,15.50
2023-05-18T21:50:27.924Z,18.50
2023-05-18T21:53:13.088Z,13.57
2023-05-18T21:55:57.065Z,16.77
2023-05-18T21:58:40.901Z,17.10
2023-05-18T22:01:24.861Z,14.10
2023-05-18T22:04:08.827Z,16.17
2023-05-18T22:06:54.484Z,13.23
2023-05-18T22:09:39.725Z,14.83
2023-05-18T22:12:23.673Z,16.33
2023-05-18T22:15:10.482Z,13.77
2023-05-18T22:17:55.815Z,13.13
2023-05-18T22:20:39.746Z,14.40
2023-05-18T22:23:26.777Z,18.50
2023-05-18T22:26:12.236Z,14.03
2023-05-18T22:28:56.189Z,19.13
2023-05-18T22:31:40.107Z,15.57
2023-05-18T22:34:23.925Z,18.03
2023-05-18T22:37:07.793Z,15.03
2023-05-18T22:39:52.900Z,20.50
2023-05-18T22:42:38.262Z,19.10
2023-05-18T22:45:22.878Z,16.20
2023-05-18T22:48:07.070Z,18.63
2023-05-18T22:50:51.404Z,19.60
2023-05-18T22:53:35.538Z,18.53
2023-05-18T22:56:21.133Z,17.57
2023-05-18T22:59:07.346Z,13.60
2023-05-18T23:01:54.685Z,14.50
2023-05-18T23:04:38.778Z,23.07
2023-05-18T23:07:24.762Z,16.93
2023-05-18T23:10:11.343Z,13.30
2023-05-18T23:12:55.875Z,17.17
2023-05-18T23:15:41.637Z,17.20
2023-05-18T23:18:31.199Z,18.10
2023-05-18T23:21:15.266Z,14.17
2023-05-18T23:23:59.907Z,23.77
2023-05-18T23:26:44.863Z,15.90
2023-05-18T23:29:29.062Z,18.10
2023-05-18T23:32:14.636Z,17.73
2023-05-18T23:34:59.682Z,15.40
2023-05-18T23:37:43.895Z,14.90
2023-05-18T23:40:28.426Z,15.40
2023-05-18T23:43:12.837Z,14.87
2023-05-18T23:45:59.797Z,17.77
2023-05-18T23:48:46.072Z,15.37
2023-05-18T23:51:33.655Z,13.87
2023-05-18T23:54:18.206Z,13.47
2023-05-18T23:57:03.378Z,16.73
2023-05-18T23:59:48.768Z,14.17
